Detall de PIREP

Printer-friendly versionPDF version

[2013/05/08 10:06:00]
Flight IATA:CT2101
Pilot Number:042
Company ICAO:CAT
Aircraft Type:B763/F
PAX:110
Departing Airport: LEAS
Destination Airport: LEVC
Alternate Airport:LEPA
Online: VATSIM
Route:XONDA ROVAK ZMR UL155 KALMA UL150 NANDO UM871 MABUX
Flight Level:F340
No Slew and time accel
No pause
Crash detect
Detect pilot in Cockpit between each 30 and 45 minutes
10:06 Zero fuel Weight: 197000 Lbs, Fuel Weight: 161680 Lbs
10:06 VATSIM:LEAS 080930Z 00000KT 9999 FEW010 SCT016 16/13 Q1016 NOSIG
10:06 VATSIM:LEVC 080930Z 00000KT CAVOK 26/10 Q1015 NOSIG
10:06 VOICE CATALONIAN
10:15 Parking Brakes off
10:20 Take-off
10:20 Take off Weight: 356730 Lbs
10:20 Wind: 242º @ 016 Knots Heading: 287º
10:20 POS N43º 33´ 54´´ W006º 02´ 30´´
10:20 Gear Up: 184 Knots
10:20 Flaps:3 at 184 Knots
10:21 Flaps:2 at 177 Knots
10:22 Flaps:1 at 242 Knots
10:22 Flaps:0 at 243 Knots
10:34 TOC
10:34 Fuel Weight: 152530 Lb
10:34 TOD
10:34 Fuel Weight: 152513 Lb
10:34 TOC
10:34 Fuel Weight: 152506 Lb
10:35 Wind:292º@038 Knots Heading: 191º Ground Speed: 477 Knots Altitude 33871 ft
10:49 TOD
10:49 Fuel Weight: 149821 Lb
10:50 Wind:279º@077 Knots Heading: 143º Ground Speed: 526 Knots Altitude 33812 ft
10:50 TOC
10:50 Fuel Weight: 149783 Lb
11:05 Wind:294º@081 Knots Heading: 088º Ground Speed: 545 Knots Altitude 34012 ft
11:06 TOD
11:06 Fuel Weight: 146792 Lb
11:20 Wind:323º@010 Knots Heading: 120º Ground Speed: 357 Knots Altitude 12408 ft
11:24 Flaps:1 at 233 Knots
11:24 Flaps:2 at 224 Knots
11:27 Flaps:3 at 186 Knots
11:35 Wind:210º@002 Knots Heading: 137º Ground Speed: 189 Knots Altitude 2995 ft
11:39 Gear Down: 178 Knots
11:39 Flaps:4 at 179 Knots
11:40 Flaps:5 at 174 Knots
11:40 Flaps:6 at 168 Knots
11:42 TouchDown:Rate -239 ft/min Speed: 158 Knots
11:42 VATSIM:LEVC 081130Z VRB01KT CAVOK 29/10 Q1014 NOSIG
11:42 Land
11:42 Wind:210º@004 Knots
11:42 Heading: 295º
11:42 Flight Duration: 01:22
11:42 Landing Weight: 337933 Lbs
11:42 POS N39º 29´ 28´´ W000º 29´ 15´´
11:48 Parking brakes on
11:48 Block to Block Duration: 01:33
11:48 Final Fuel: 139171 Lbls
11:48 Spent Fuel: 22508 Lbls
11:48 Flight Length: 540 NM
11:48 TOD Land Length: 181 NM

Exportar CSV

Powered by Drupal - Modified by Danger4k